West Leyden, New York
Current Conditions -  °F | °C
As of 6:53 AM on Saturday 01 Nov 2014 (Local Time) from KRME Reporting Station
Overcast Overcast  
Wind Chill: 32°   Ceiling: 6000
Heat Index: 39°   Visibility: 10mi
Dew Point: 31°   Wind: 10mph
Humidity: 73%   Direction: 20°NNE
Pressure: 29.97"   Gusts: NA
Location:  43.46°N, 75.46°W
Report Text: KRME 011053Z 02009KT 10SM OVC060 04/M01 A2997 RMK AO2 SLP151 T00391006
Loading
Personal Weather Stations






























Interactive Weather Map
Tropical Storm Tracking
New forecast layout! Learn more

10-Day Weather Forecast

Advertisements
Track Severe Weather on mobile